createdAt,value
2018-07-28T00:00:11.168Z,95145.59
2018-07-28T00:02:40.362Z,95140.25
2018-07-28T00:05:10.718Z,95132.53
2018-07-28T00:07:39.872Z,95130.81
2018-07-28T00:10:12.145Z,95132.07
2018-07-28T00:12:41.729Z,95130.71
2018-07-28T00:15:12.444Z,95117.77
2018-07-28T00:17:42.841Z,95121.04
2018-07-28T00:20:13.165Z,95121.04
2018-07-28T00:22:42.318Z,95117.20
2018-07-28T00:25:12.589Z,95121.28
2018-07-28T00:27:42.196Z,95113.67
2018-07-28T00:30:13.057Z,95113.77
2018-07-28T00:32:42.381Z,95110.34
2018-07-28T00:35:11.500Z,95111.45
2018-07-28T00:37:40.669Z,95110.44
2018-07-28T00:40:09.781Z,95103.04
2018-07-28T00:42:39.048Z,95106.92
2018-07-28T00:45:08.639Z,95101.62
2018-07-28T00:47:37.818Z,95103.42
2018-07-28T00:50:08.532Z,95102.06
2018-07-28T00:52:37.869Z,95100.36
2018-07-28T00:55:07.956Z,95098.75
2018-07-28T00:57:37.087Z,95093.37
2018-07-28T01:00:08.261Z,95096.77
2018-07-28T01:02:37.616Z,95086.65
2018-07-28T01:05:07.370Z,95083.36
2018-07-28T01:07:36.509Z,95084.03
2018-07-28T01:10:06.548Z,95083.70
2018-07-28T01:12:35.696Z,95084.61
2018-07-28T01:15:07.703Z,95082.56
2018-07-28T01:17:37.006Z,95086.16
2018-07-28T01:20:07.849Z,95082.43
2018-07-28T01:22:37.149Z,95078.00
2018-07-28T01:25:08.069Z,95079.25
2018-07-28T01:27:37.231Z,95077.98
2018-07-28T01:30:11.854Z,95082.07
2018-07-28T01:32:41.000Z,95077.73
2018-07-28T01:35:10.328Z,95073.27
2018-07-28T01:37:39.452Z,95070.43
2018-07-28T01:40:08.593Z,95072.88
2018-07-28T01:42:37.716Z,95064.92
2018-07-28T01:45:08.733Z,95063.51
2018-07-28T01:47:37.909Z,95072.05
2018-07-28T01:50:09.303Z,95067.17
2018-07-28T01:52:38.453Z,95065.11
2018-07-28T01:55:07.629Z,95061.32
2018-07-28T01:57:36.782Z,95051.04
2018-07-28T02:00:07.183Z,95048.32
2018-07-28T02:02:36.409Z,95044.73
2018-07-28T02:05:07.804Z,95046.40
2018-07-28T02:07:36.968Z,95044.83
2018-07-28T02:10:06.645Z,95044.02
2018-07-28T02:12:35.828Z,95045.70
2018-07-28T02:15:06.377Z,95044.16
2018-07-28T02:17:35.544Z,95053.61
2018-07-28T02:20:05.939Z,95048.61
2018-07-28T02:22:35.076Z,95045.02
2018-07-28T02:25:05.436Z,95043.30
2018-07-28T02:27:34.596Z,95042.25
2018-07-28T02:30:03.801Z,95044.16
2018-07-28T02:32:33.201Z,95042.80
2018-07-28T02:35:02.341Z,95040.86
2018-07-28T02:37:31.492Z,95041.66
2018-07-28T02:40:00.628Z,95039.72
2018-07-28T02:42:29.753Z,95040.25
2018-07-28T02:44:58.868Z,95035.65
2018-07-28T02:47:28.002Z,95036.98
2018-07-28T02:49:57.149Z,95036.14
2018-07-28T02:52:26.282Z,95027.13
2018-07-28T02:54:55.421Z,95032.01
2018-07-28T02:57:24.561Z,95033.80
2018-07-28T02:59:53.692Z,95035.50
2018-07-28T03:02:22.819Z,95033.24
2018-07-28T03:04:51.929Z,95034.14
2018-07-28T03:07:21.064Z,95028.70
2018-07-28T03:09:50.188Z,95030.96
2018-07-28T03:12:20.522Z,95024.36
2018-07-28T03:14:49.680Z,95029.20
2018-07-28T03:17:18.821Z,95029.20
2018-07-28T03:19:47.977Z,95026.33
2018-07-28T03:22:17.137Z,95025.69
2018-07-28T03:24:46.312Z,95026.55
2018-07-28T03:27:15.424Z,95036.64
2018-07-28T03:29:44.561Z,95032.28
2018-07-28T03:32:13.717Z,95038.95
2018-07-28T03:34:42.868Z,95035.21
2018-07-28T03:37:12.067Z,95038.05
2018-07-28T03:39:41.204Z,95034.31
2018-07-28T03:42:10.560Z,95035.27
2018-07-28T03:44:39.701Z,95035.62
2018-07-28T03:47:08.837Z,95041.13
2018-07-28T03:49:37.784Z,95037.60
2018-07-28T03:52:06.929Z,95039.52
2018-07-28T03:54:36.123Z,95046.21
2018-07-28T03:57:05.305Z,95045.77
2018-07-28T03:59:34.471Z,95042.38
2018-07-28T04:02:03.662Z,95043.94
2018-07-28T04:04:32.805Z,95047.16
2018-07-28T04:07:01.991Z,95048.91
2018-07-28T04:09:31.137Z,95051.48
2018-07-28T04:12:00.348Z,95053.48
2018-07-28T04:14:29.505Z,95054.63
2018-07-28T04:16:58.748Z,95050.89
2018-07-28T04:19:27.964Z,95058.23
2018-07-28T04:21:57.176Z,95056.57
2018-07-28T04:24:26.328Z,95057.96
2018-07-28T04:26:55.479Z,95055.05
2018-07-28T04:29:24.725Z,95058.18
2018-07-28T04:31:53.869Z,95052.58
2018-07-28T04:34:23.008Z,95057.59
2018-07-28T04:36:52.173Z,95057.13
2018-07-28T04:39:21.355Z,95062.63
2018-07-28T04:41:50.488Z,95052.53
2018-07-28T04:44:19.894Z,95061.56
2018-07-28T04:46:49.087Z,95066.78
2018-07-28T04:49:18.254Z,95061.75
2018-07-28T04:51:47.463Z,95061.45
2018-07-28T04:54:16.661Z,95065.27
2018-07-28T04:56:45.793Z,95061.58
2018-07-28T04:59:15.007Z,95060.72
2018-07-28T05:01:44.150Z,95064.09
2018-07-28T05:04:13.294Z,95068.36
2018-07-28T05:06:42.480Z,95068.70
2018-07-28T05:09:11.857Z,95067.81
2018-07-28T05:11:41.025Z,95069.20
2018-07-28T05:14:10.148Z,95069.47
2018-07-28T05:16:39.296Z,95069.85
2018-07-28T05:19:08.667Z,95069.84
2018-07-28T05:21:37.797Z,95066.57
2018-07-28T05:24:07.339Z,95065.34
2018-07-28T05:26:36.516Z,95063.94
2018-07-28T05:29:06.050Z,95061.95
2018-07-28T05:31:35.472Z,95063.34
2018-07-28T05:34:04.593Z,95066.90
2018-07-28T05:36:33.725Z,95064.73
2018-07-28T05:39:03.227Z,95064.87
2018-07-28T05:41:32.385Z,95073.08
2018-07-28T05:44:01.579Z,95071.20
2018-07-28T05:46:30.868Z,95072.84
2018-07-28T05:49:00.070Z,95078.19
2018-07-28T05:51:29.371Z,95079.55
2018-07-28T05:53:58.574Z,95078.22
2018-07-28T05:56:27.768Z,95078.52
2018-07-28T05:58:56.925Z,95078.23
2018-07-28T06:01:26.076Z,95072.52
2018-07-28T06:03:55.275Z,95076.16
2018-07-28T06:06:24.479Z,95077.20
2018-07-28T06:08:53.626Z,95074.52
2018-07-28T06:13:51.004Z,95075.13
2018-07-28T06:16:20.161Z,95071.20
2018-07-28T06:18:49.312Z,95064.20
2018-07-28T06:21:18.524Z,95064.88
2018-07-28T06:23:47.717Z,95066.70
2018-07-28T06:26:16.883Z,95066.84
2018-07-28T06:28:46.025Z,95065.94
2018-07-28T06:31:15.193Z,95069.02
2018-07-28T06:33:44.373Z,95076.95
2018-07-28T06:36:13.520Z,95078.59
2018-07-28T06:38:42.756Z,95080.30
2018-07-28T06:41:11.929Z,95086.76
2018-07-28T06:43:41.205Z,95096.29
2018-07-28T06:46:10.385Z,95096.78
2018-07-28T06:48:39.699Z,95094.83
2018-07-28T06:51:08.931Z,95099.72
2018-07-28T06:53:38.103Z,95098.14
2018-07-28T06:56:07.289Z,95100.66
2018-07-28T06:58:36.489Z,95094.64
2018-07-28T07:01:05.736Z,95098.48
2018-07-28T07:03:34.940Z,95102.91
2018-07-28T07:06:04.594Z,95100.18
2018-07-28T07:08:33.760Z,95102.02
2018-07-28T07:11:02.981Z,95101.69
2018-07-28T07:13:32.195Z,95107.02
2018-07-28T07:16:01.362Z,95107.24
2018-07-28T07:18:30.696Z,95104.16
2018-07-28T07:20:59.907Z,95099.47
2018-07-28T07:23:29.032Z,95104.78
2018-07-28T07:25:58.158Z,95099.91
2018-07-28T07:28:27.351Z,95099.77
2018-07-28T07:30:56.492Z,95103.50
2018-07-28T07:33:25.687Z,95100.19
2018-07-28T07:35:54.859Z,95102.89
2018-07-28T07:38:24.065Z,95102.53
2018-07-28T07:40:53.215Z,95105.02
2018-07-28T07:43:22.687Z,95103.42
2018-07-28T07:45:51.832Z,95110.86
2018-07-28T07:48:21.028Z,95106.05
2018-07-28T07:50:50.181Z,95098.38
2018-07-28T07:53:19.400Z,95104.44
2018-07-28T07:55:48.579Z,95102.02
2018-07-28T07:58:17.758Z,95105.82
2018-07-28T08:00:47.161Z,95111.23
2018-07-28T08:03:16.712Z,95107.33
2018-07-28T08:05:45.869Z,95101.63
2018-07-28T08:08:15.025Z,95106.34
2018-07-28T08:10:44.244Z,95100.23
2018-07-28T08:13:13.397Z,95103.78
2018-07-28T08:15:42.548Z,95109.30
2018-07-28T08:18:11.747Z,95108.23
2018-07-28T08:20:40.911Z,95107.00
2018-07-28T08:23:10.318Z,95105.49
2018-07-28T08:25:39.503Z,95106.66
2018-07-28T08:28:08.649Z,95095.16
2018-07-28T08:30:37.792Z,95100.78
2018-07-28T08:33:07.261Z,95095.02
2018-07-28T08:35:36.480Z,95101.72
2018-07-28T08:38:05.628Z,95105.44
2018-07-28T08:40:34.761Z,95106.17
2018-07-28T08:43:03.904Z,95106.86
2018-07-28T08:45:33.057Z,95113.95
2018-07-28T08:48:02.184Z,95109.25
2018-07-28T08:50:31.304Z,95115.66
2018-07-28T08:53:00.457Z,95114.77
2018-07-28T08:55:29.640Z,95113.54
2018-07-28T08:57:58.737Z,95123.03
2018-07-28T09:00:28.289Z,95122.56
2018-07-28T09:02:57.421Z,95125.30
2018-07-28T09:05:26.536Z,95125.67
2018-07-28T09:07:55.675Z,95125.80
2018-07-28T09:10:24.820Z,95129.36
2018-07-28T09:12:53.938Z,95130.16
2018-07-28T09:15:23.099Z,95123.02
2018-07-28T09:17:52.497Z,95135.26
2018-07-28T09:20:21.578Z,95129.95
2018-07-28T09:22:50.709Z,95128.64
2018-07-28T09:25:19.858Z,95134.55
2018-07-28T09:27:49.027Z,95127.02
2018-07-28T09:30:18.160Z,95127.22
2018-07-28T09:32:47.308Z,95124.80
2018-07-28T09:35:16.523Z,95125.75
2018-07-28T09:37:45.509Z,95118.78
2018-07-28T09:40:14.606Z,95119.89
2018-07-28T09:42:43.764Z,95120.91
2018-07-28T09:45:12.865Z,95122.69
2018-07-28T09:47:42.013Z,95125.04
2018-07-28T09:50:11.134Z,95122.23
2018-07-28T09:52:40.311Z,95116.45
2018-07-28T09:55:09.465Z,95122.63
2018-07-28T09:57:38.586Z,95114.63
2018-07-28T10:00:07.725Z,95111.66
2018-07-28T10:02:36.920Z,95122.76
2018-07-28T10:05:06.047Z,95122.16
2018-07-28T10:07:35.189Z,95121.36
2018-07-28T10:10:04.781Z,95124.55
2018-07-28T10:12:33.900Z,95117.95
2018-07-28T10:15:03.031Z,95122.37
2018-07-28T10:17:32.214Z,95124.22
2018-07-28T10:20:01.416Z,95127.16
2018-07-28T10:22:30.545Z,95123.45
2018-07-28T10:24:59.723Z,95129.60
2018-07-28T10:27:28.845Z,95129.64
2018-07-28T10:29:57.969Z,95131.17
2018-07-28T10:32:27.111Z,95136.13
2018-07-28T10:34:56.245Z,95138.46
2018-07-28T10:37:25.389Z,95133.61
2018-07-28T10:39:54.677Z,95129.94
2018-07-28T10:42:23.805Z,95137.05
2018-07-28T10:44:52.949Z,95131.45
2018-07-28T10:47:23.158Z,95129.90
2018-07-28T10:49:52.666Z,95131.52
2018-07-28T10:52:21.854Z,95131.94
2018-07-28T10:54:51.953Z,95127.13
2018-07-28T10:57:24.461Z,95130.71
2018-07-28T10:59:54.776Z,95135.05
2018-07-28T11:02:23.912Z,95132.61
2018-07-28T11:04:53.032Z,95125.86
2018-07-28T11:07:22.213Z,95122.89
2018-07-28T11:09:51.374Z,95133.19
2018-07-28T11:12:20.523Z,95140.16
2018-07-28T11:14:49.680Z,95129.23
2018-07-28T11:17:18.810Z,95134.53
2018-07-28T11:19:47.954Z,95146.75
2018-07-28T11:22:17.144Z,95147.29
2018-07-28T11:24:46.265Z,95166.69
2018-07-28T11:27:15.392Z,95149.73
2018-07-28T11:29:44.545Z,95160.20
2018-07-28T11:32:30.812Z,95189.69
2018-07-28T11:35:17.122Z,95165.16
2018-07-28T11:38:08.262Z,95173.02
2018-07-28T11:40:54.495Z,95172.61
2018-07-28T11:44:42.715Z,95174.23
2018-07-28T11:47:12.439Z,95163.95
2018-07-28T11:49:41.938Z,95162.47
2018-07-28T11:52:11.139Z,95162.03
2018-07-28T11:54:40.330Z,95159.64
2018-07-28T11:57:09.489Z,95160.24
2018-07-28T11:59:38.700Z,95163.44
2018-07-28T12:02:07.996Z,95167.33
2018-07-28T12:04:37.158Z,95160.95
2018-07-28T12:07:06.592Z,95167.97
2018-07-28T12:09:36.030Z,95169.44
2018-07-28T12:12:05.173Z,95173.89
2018-07-28T12:14:34.319Z,95164.97
2018-07-28T12:17:03.486Z,95170.34
2018-07-28T12:19:32.679Z,95178.11
2018-07-28T12:22:02.174Z,95172.69
2018-07-28T12:24:31.317Z,95176.01
2018-07-28T12:27:00.492Z,95177.88
2018-07-28T12:29:29.657Z,95177.05
2018-07-28T12:31:58.818Z,95183.89
2018-07-28T12:34:28.038Z,95178.42
2018-07-28T12:36:57.173Z,95182.51
2018-07-28T12:39:26.367Z,95190.55
2018-07-28T12:41:55.496Z,95187.25
2018-07-28T12:44:24.620Z,95200.82
2018-07-28T12:46:53.800Z,95210.98
2018-07-28T12:49:23.007Z,95222.10
2018-07-28T12:51:52.133Z,95215.33
2018-07-28T12:54:21.261Z,95219.45
2018-07-28T12:56:50.436Z,95228.75
2018-07-28T12:59:19.560Z,95225.06
2018-07-28T13:01:48.724Z,95235.06
2018-07-28T13:04:17.853Z,95236.43
2018-07-28T13:06:46.981Z,95245.13
2018-07-28T13:09:16.267Z,95238.75
2018-07-28T13:11:45.392Z,95235.67
2018-07-28T13:14:14.559Z,95234.10
2018-07-28T13:16:43.694Z,95231.55
2018-07-28T13:19:12.859Z,95231.84
2018-07-28T13:21:42.025Z,95229.39
2018-07-28T13:24:10.952Z,95224.56
2018-07-28T13:26:40.122Z,95232.45
2018-07-28T13:29:09.289Z,95225.02
2018-07-28T13:31:38.501Z,95224.66
2018-07-28T13:34:07.689Z,95232.80
2018-07-28T13:36:36.848Z,95227.22
2018-07-28T13:39:08.148Z,95219.98
2018-07-28T13:41:37.396Z,95224.88
2018-07-28T13:44:06.781Z,95220.84
2018-07-28T13:46:35.924Z,95220.56
2018-07-28T13:49:05.093Z,95226.87
2018-07-28T13:51:34.242Z,95210.28
2018-07-28T13:54:03.419Z,95208.83
2018-07-28T13:56:32.843Z,95212.43
2018-07-28T13:59:02.007Z,95205.89
2018-07-28T14:01:31.130Z,95218.36
2018-07-28T14:04:00.258Z,95215.72
2018-07-28T14:06:29.393Z,95210.76
2018-07-28T14:08:58.590Z,95211.24
2018-07-28T14:11:28.693Z,95220.20
2018-07-28T14:13:58.169Z,95214.20
2018-07-28T14:16:27.301Z,95217.25
2018-07-28T14:18:56.580Z,95220.72
2018-07-28T14:21:25.731Z,95216.43
2018-07-28T14:23:54.853Z,95222.67
2018-07-28T14:26:23.989Z,95229.13
2018-07-28T14:28:53.136Z,95230.50
2018-07-28T14:31:22.282Z,95236.72
2018-07-28T14:33:52.036Z,95235.34
2018-07-28T14:36:21.454Z,95239.12
2018-07-28T14:38:50.576Z,95234.16
2018-07-28T14:41:19.727Z,95236.45
2018-07-28T14:43:48.874Z,95242.11
2018-07-28T14:46:18.076Z,95226.73
2018-07-28T14:48:47.189Z,95230.25
2018-07-28T14:51:16.314Z,95222.48
2018-07-28T14:53:45.465Z,95220.73
2018-07-28T14:56:14.596Z,95223.70
2018-07-28T14:58:43.721Z,95231.38
2018-07-28T15:01:12.916Z,95235.81
2018-07-28T15:03:41.988Z,95234.22
2018-07-28T15:06:11.313Z,95241.43
2018-07-28T15:08:40.488Z,95239.41
2018-07-28T15:11:09.917Z,95243.99
2018-07-28T15:13:39.064Z,95240.77
2018-07-28T15:16:08.394Z,95250.47
2018-07-28T15:18:37.536Z,95253.67
2018-07-28T15:21:06.657Z,95254.17
2018-07-28T15:23:35.797Z,95250.63
2018-07-28T15:26:04.953Z,95256.48
2018-07-28T15:28:34.409Z,95261.66
2018-07-28T15:31:03.576Z,95252.16
2018-07-28T15:33:32.734Z,95255.17
2018-07-28T15:36:02.210Z,95262.75
2018-07-28T15:38:31.330Z,95264.98
2018-07-28T15:41:00.466Z,95264.95
2018-07-28T15:43:29.609Z,95273.38
2018-07-28T15:45:58.758Z,95265.75
2018-07-28T15:48:27.944Z,95261.36
2018-07-28T15:50:57.105Z,95259.94
2018-07-28T15:53:26.816Z,95254.30
2018-07-28T15:55:55.964Z,95256.48
2018-07-28T15:58:25.156Z,95253.46
2018-07-28T16:00:54.368Z,95259.60
2018-07-28T16:03:23.522Z,95263.62
2018-07-28T16:05:52.735Z,95261.55
2018-07-28T16:08:21.841Z,95262.89
2018-07-28T16:10:51.076Z,95270.20
2018-07-28T16:13:20.016Z,95262.77
2018-07-28T16:15:49.589Z,95274.02
2018-07-28T16:18:18.752Z,95270.20
2018-07-28T16:20:47.924Z,95268.84
2018-07-28T16:23:17.116Z,95273.02
2018-07-28T16:25:46.261Z,95273.04
2018-07-28T16:28:15.453Z,95270.36
2018-07-28T16:30:44.645Z,95277.80
2018-07-28T16:33:13.564Z,95279.37
2018-07-28T16:35:42.751Z,95284.48
2018-07-28T16:38:12.256Z,95277.15
2018-07-28T16:40:41.443Z,95278.56
2018-07-28T16:43:10.631Z,95274.36
2018-07-28T16:45:39.774Z,95282.64
2018-07-28T16:48:08.924Z,95285.52
2018-07-28T16:50:37.897Z,95277.88
2018-07-28T16:53:07.014Z,95278.17
2018-07-28T16:55:39.088Z,95273.66
2018-07-28T16:58:08.512Z,95265.08
2018-07-28T17:00:37.713Z,95267.82
2018-07-28T17:03:06.903Z,95277.33
2018-07-28T17:05:36.039Z,95287.78
2018-07-28T17:08:05.196Z,95301.12
2018-07-28T17:10:34.320Z,95300.03
2018-07-28T17:13:03.476Z,95302.77
2018-07-28T17:15:32.601Z,95300.58
2018-07-28T17:18:01.787Z,95311.38
2018-07-28T17:20:30.920Z,95303.28
2018-07-28T17:23:00.079Z,95314.05
2018-07-28T17:25:29.303Z,95322.07
2018-07-28T17:27:58.771Z,95326.87
2018-07-28T17:30:27.905Z,95324.81
2018-07-28T17:32:57.046Z,95327.76
2018-07-28T17:35:26.469Z,95327.32
2018-07-28T17:37:55.385Z,95338.59
2018-07-28T17:40:24.537Z,95336.13
2018-07-28T17:42:53.705Z,95347.39
2018-07-28T17:45:22.853Z,95341.32
2018-07-28T17:47:52.007Z,95357.80
2018-07-28T17:50:21.160Z,95343.90
2018-07-28T17:52:50.315Z,95348.88
2018-07-28T17:55:19.464Z,95354.22
2018-07-28T17:57:48.630Z,95353.45
2018-07-28T18:00:17.951Z,95355.15
2018-07-28T18:02:47.118Z,95363.50
2018-07-28T18:05:16.316Z,95369.08
2018-07-28T18:07:45.244Z,95369.32
2018-07-28T18:10:14.662Z,95368.55
2018-07-28T18:12:43.849Z,95367.53
2018-07-28T18:15:12.989Z,95365.72
2018-07-28T18:17:42.203Z,95372.91
2018-07-28T18:20:11.357Z,95377.14
2018-07-28T18:22:40.560Z,95376.91
2018-07-28T18:25:09.757Z,95384.41
2018-07-28T18:27:38.895Z,95376.92
2018-07-28T18:30:08.135Z,95376.92
2018-07-28T18:32:37.295Z,95394.25
2018-07-28T18:35:06.993Z,95380.80
2018-07-28T18:37:35.939Z,95394.48
2018-07-28T18:40:05.334Z,95390.48
2018-07-28T18:42:34.489Z,95397.58
2018-07-28T18:45:03.423Z,95397.90
2018-07-28T18:47:32.545Z,95408.14
2018-07-28T18:50:01.708Z,95403.34
2018-07-28T18:52:30.809Z,95413.16
2018-07-28T18:54:59.958Z,95415.89
2018-07-28T18:57:29.167Z,95421.43
2018-07-28T18:59:58.300Z,95411.08
2018-07-28T19:02:27.436Z,95424.49
2018-07-28T19:04:56.573Z,95423.36
2018-07-28T19:07:25.759Z,95427.91
2018-07-28T19:09:55.139Z,95442.23
2018-07-28T19:12:29.559Z,95439.86
2018-07-28T19:14:59.031Z,95442.24
2018-07-28T19:18:31.508Z,95455.44
2018-07-28T19:21:00.699Z,95461.81
2018-07-28T19:23:35.225Z,95463.42
2018-07-28T19:26:04.379Z,95470.91
2018-07-28T19:28:38.887Z,95468.98
2018-07-28T19:31:08.108Z,95477.62
2018-07-28T19:33:37.282Z,95484.67
2018-07-28T19:36:11.648Z,95477.84
2018-07-28T19:38:41.167Z,95480.01
2018-07-28T19:41:10.286Z,95483.19
2018-07-28T19:43:39.404Z,95482.84
2018-07-28T19:46:08.833Z,95487.50
2018-07-28T19:48:37.988Z,95494.56
2018-07-28T19:51:07.715Z,95504.78
2018-07-28T19:53:37.064Z,95505.02
2018-07-28T19:56:06.315Z,95502.70
2018-07-28T19:58:35.440Z,95504.78
2018-07-28T20:01:04.929Z,95510.23
2018-07-28T20:03:34.079Z,95516.71
2018-07-28T20:06:03.221Z,95516.95
2018-07-28T20:08:32.421Z,95518.66
2018-07-28T20:11:01.601Z,95526.80
2018-07-28T20:13:30.520Z,95526.34
2018-07-28T20:15:59.731Z,95520.58
2018-07-28T20:18:28.889Z,95529.42
2018-07-28T20:20:58.032Z,95524.17
2018-07-28T20:23:27.553Z,95523.61
2018-07-28T20:25:56.785Z,95519.30
2018-07-28T20:28:25.963Z,95524.86
2018-07-28T20:30:55.443Z,95523.03
2018-07-28T20:33:24.574Z,95525.16
2018-07-28T20:35:53.721Z,95523.98
2018-07-28T20:38:23.651Z,95523.84
2018-07-28T20:40:52.892Z,95524.61
2018-07-28T20:43:22.053Z,95531.42
2018-07-28T20:45:51.206Z,95537.34
2018-07-28T20:48:20.461Z,95537.53
2018-07-28T20:50:49.541Z,95530.23
2018-07-28T20:53:18.669Z,95537.52
2018-07-28T20:55:47.833Z,95539.68
2018-07-28T20:58:16.984Z,95542.05
2018-07-28T21:00:46.103Z,95541.92
2018-07-28T21:03:15.239Z,95549.30
2018-07-28T21:05:44.381Z,95550.09
2018-07-28T21:08:13.528Z,95540.67
2018-07-28T21:10:42.661Z,95548.73
2018-07-28T21:13:11.863Z,95548.12
2018-07-28T21:15:41.002Z,95554.28
2018-07-28T21:18:10.138Z,95551.56
2018-07-28T21:20:39.363Z,95548.12
2018-07-28T21:23:08.433Z,95543.91
2018-07-28T21:25:37.683Z,95549.33
2018-07-28T21:28:07.087Z,95556.92
2018-07-28T21:30:36.207Z,95566.30
2018-07-28T21:33:05.537Z,95564.47
2018-07-28T21:35:34.677Z,95566.77
2018-07-28T21:38:03.801Z,95569.92
2018-07-28T21:40:33.001Z,95561.05
2018-07-28T21:43:02.175Z,95562.76
2018-07-28T21:45:31.451Z,95571.73
2018-07-28T21:48:00.353Z,95568.30
2018-07-28T21:50:29.472Z,95577.88
2018-07-28T21:52:58.612Z,95579.17
2018-07-28T21:55:27.746Z,95585.98
2018-07-28T21:57:56.889Z,95577.59
2018-07-28T22:00:26.009Z,95591.69
2018-07-28T22:02:55.518Z,95582.73
2018-07-28T22:05:24.658Z,95591.23
2018-07-28T22:07:53.789Z,95600.05
2018-07-28T22:10:23.219Z,95602.56
2018-07-28T22:12:52.396Z,95601.45
2018-07-28T22:15:21.618Z,95612.56
2018-07-28T22:17:50.777Z,95615.16
2018-07-28T22:20:20.009Z,95610.91
2018-07-28T22:22:49.548Z,95620.19
2018-07-28T22:25:18.694Z,95619.03
2018-07-28T22:27:47.812Z,95607.89
2018-07-28T22:30:16.958Z,95618.09
2018-07-28T22:32:46.082Z,95616.39
2018-07-28T22:35:15.275Z,95614.01
2018-07-28T22:37:44.466Z,95622.70
2018-07-28T22:40:13.559Z,95615.75
2018-07-28T22:42:51.006Z,95618.48
2018-07-28T22:45:21.131Z,95612.36
2018-07-28T22:47:50.252Z,95612.64
2018-07-28T22:50:19.395Z,95615.12
2018-07-28T22:52:48.619Z,95613.93
2018-07-28T22:55:17.767Z,95606.91
2018-07-28T22:57:46.897Z,95613.71
2018-07-28T23:00:16.012Z,95606.34
2018-07-28T23:02:45.192Z,95611.45
2018-07-28T23:05:14.489Z,95613.93
2018-07-28T23:07:43.691Z,95611.59
2018-07-28T23:10:12.901Z,95612.09
2018-07-28T23:12:42.046Z,95613.23
2018-07-28T23:15:11.198Z,95613.38
2018-07-28T23:17:40.380Z,95618.69
2018-07-28T23:20:09.548Z,95617.80
2018-07-28T23:22:38.698Z,95616.60
2018-07-28T23:25:08.460Z,95618.38
2018-07-28T23:27:37.767Z,95621.83
2018-07-28T23:30:09.225Z,95618.91
2018-07-28T23:32:38.829Z,95622.86
2018-07-28T23:35:07.962Z,95618.16
2018-07-28T23:37:37.093Z,95617.02
2018-07-28T23:40:06.889Z,95620.63
2018-07-28T23:42:36.037Z,95616.16
2018-07-28T23:45:05.609Z,95623.55
2018-07-28T23:47:34.869Z,95624.66
2018-07-28T23:50:04.438Z,95630.66
2018-07-28T23:52:33.647Z,95626.28
2018-07-28T23:55:02.798Z,95629.00
2018-07-28T23:57:31.965Z,95619.30
